createdAt,value
2022-09-23T00:01:07.457Z,99115.16
2022-09-23T00:03:37.241Z,99116.28
2022-09-23T00:06:10.802Z,99118.06
2022-09-23T00:08:38.977Z,99108.66
2022-09-23T00:11:11.471Z,99111.34
2022-09-23T00:13:40.158Z,99113.94
2022-09-23T00:16:10.926Z,99108.28
2022-09-23T00:18:38.535Z,99106.75
2022-09-23T00:21:10.883Z,99103.19
2022-09-23T00:23:40.547Z,99101.97
2022-09-23T00:26:09.050Z,99095.09
2022-09-23T00:28:36.295Z,99093.75
2022-09-23T00:31:05.593Z,99093.16
2022-09-23T00:33:32.733Z,99098.22
2022-09-23T00:36:00.839Z,99099.13
2022-09-23T00:38:28.599Z,99086.22
2022-09-23T00:40:55.576Z,99086.84
2022-09-23T00:43:58.008Z,99086.44
2022-09-23T00:46:37.183Z,99079.53
2022-09-23T00:49:12.093Z,99071.09
2022-09-23T00:51:43.791Z,99069.03
2022-09-23T00:54:11.029Z,99070.81
2022-09-23T00:56:38.895Z,99065.06
2022-09-23T00:59:07.987Z,99070.34
2022-09-23T01:01:37.392Z,99066.62
2022-09-23T01:04:04.745Z,99074.53
2022-09-23T01:06:32.931Z,99078.16
2022-09-23T01:08:59.922Z,99073.81
2022-09-23T01:11:36.052Z,99071.00
2022-09-23T01:14:27.895Z,99077.44
2022-09-23T01:17:07.348Z,99074.84
2022-09-23T01:19:43.686Z,99085.44
2022-09-23T01:22:19.137Z,99080.56
2022-09-23T01:25:08.457Z,99075.25
2022-09-23T01:27:38.230Z,99074.94
2022-09-23T01:30:08.516Z,99070.31
2022-09-23T01:32:57.779Z,99076.53
2022-09-23T01:36:11.734Z,99076.66
2022-09-23T01:38:49.323Z,99076.66
2022-09-23T01:42:10.524Z,99079.94
2022-09-23T01:44:43.741Z,99075.31
2022-09-23T01:47:30.900Z,99076.25
2022-09-23T01:50:24.477Z,99062.97
2022-09-23T01:52:53.463Z,99066.03
2022-09-23T01:55:28.274Z,99068.72
2022-09-23T01:58:06.937Z,99071.94
2022-09-23T02:00:40.666Z,99070.16
2022-09-23T02:03:15.415Z,99072.63
2022-09-23T02:05:46.530Z,99072.81
2022-09-23T02:08:21.164Z,99070.13
2022-09-23T02:10:56.160Z,99077.25
2022-09-23T02:13:29.007Z,99069.53
2022-09-23T02:16:01.237Z,99073.91
2022-09-23T02:18:31.980Z,99070.47
2022-09-23T02:21:04.197Z,99060.62
2022-09-23T02:23:40.849Z,99056.78
2022-09-23T02:26:28.611Z,99067.31
2022-09-23T02:29:20.759Z,99063.25
2022-09-23T02:32:22.023Z,99062.28
2022-09-23T02:34:55.334Z,99066.22
2022-09-23T02:37:28.744Z,99060.38
2022-09-23T02:40:05.353Z,99059.97
2022-09-23T02:43:12.745Z,99060.81
2022-09-23T02:45:40.116Z,99064.72
2022-09-23T02:48:18.666Z,99067.62
2022-09-23T02:50:47.790Z,99068.22
2022-09-23T02:53:17.898Z,99065.81
2022-09-23T02:55:45.702Z,99070.53
2022-09-23T02:58:14.092Z,99070.00
2022-09-23T03:00:58.603Z,99073.13
2022-09-23T03:03:44.352Z,99068.72
2022-09-23T03:06:31.732Z,99065.72
2022-09-23T03:09:04.796Z,99062.50
2022-09-23T03:11:35.350Z,99071.00
2022-09-23T03:14:17.717Z,99064.91
2022-09-23T03:16:50.826Z,99065.34
2022-09-23T03:19:26.191Z,99067.34
2022-09-23T03:22:11.779Z,99069.38
2022-09-23T03:24:40.198Z,99076.69
2022-09-23T03:27:14.670Z,99077.88
2022-09-23T03:29:48.122Z,99072.88
2022-09-23T03:32:17.484Z,99079.13
2022-09-23T03:34:47.284Z,99064.97
2022-09-23T03:37:32.701Z,99064.53
2022-09-23T03:40:08.264Z,99067.62
2022-09-23T03:42:36.565Z,99060.75
2022-09-23T03:45:08.319Z,99060.84
2022-09-23T03:47:35.627Z,99064.28
2022-09-23T03:50:02.635Z,99067.06
2022-09-23T03:52:29.970Z,99071.16
2022-09-23T03:54:56.975Z,99075.06
2022-09-23T03:57:24.284Z,99074.53
2022-09-23T03:59:52.367Z,99074.53
2022-09-23T04:02:20.515Z,99065.91
2022-09-23T04:04:47.860Z,99062.41
2022-09-23T04:07:15.571Z,99066.22
2022-09-23T04:09:42.622Z,99063.41
2022-09-23T04:12:15.056Z,99067.69
2022-09-23T04:14:42.397Z,99065.28
2022-09-23T04:17:10.000Z,99063.22
2022-09-23T04:19:37.244Z,99074.53
2022-09-23T04:22:04.787Z,99068.72
2022-09-23T04:24:32.159Z,99067.69
2022-09-23T04:26:59.826Z,99069.25
2022-09-23T04:29:27.214Z,99072.22
2022-09-23T04:31:54.886Z,99072.03
2022-09-23T04:34:22.101Z,99069.53
2022-09-23T04:36:49.344Z,99072.13
2022-09-23T04:39:17.712Z,99071.28
2022-09-23T04:41:45.344Z,99079.81
2022-09-23T04:44:13.370Z,99084.00
2022-09-23T04:46:42.167Z,99080.06
2022-09-23T04:49:09.190Z,99082.38
2022-09-23T04:51:36.475Z,99089.88
2022-09-23T04:54:03.895Z,99083.41
2022-09-23T04:56:34.146Z,99080.81
2022-09-23T04:59:04.462Z,99078.75
2022-09-23T05:01:34.450Z,99087.44
2022-09-23T05:04:06.587Z,99086.75
2022-09-23T05:06:35.389Z,99096.91
2022-09-23T05:09:05.098Z,99097.88
2022-09-23T05:11:32.297Z,99097.41
2022-09-23T05:13:59.969Z,99106.34
2022-09-23T05:16:27.325Z,99102.22
2022-09-23T05:18:54.700Z,99112.88
2022-09-23T05:21:23.892Z,99102.66
2022-09-23T05:23:56.568Z,99106.81
2022-09-23T05:26:27.578Z,99103.94
2022-09-23T05:28:54.688Z,99109.75
2022-09-23T05:31:24.160Z,99108.78
2022-09-23T05:34:02.479Z,99107.81
2022-09-23T05:36:35.566Z,99108.63
2022-09-23T05:39:06.503Z,99104.56
2022-09-23T05:41:34.472Z,99114.00
2022-09-23T05:44:01.841Z,99113.81
2022-09-23T05:46:30.515Z,99112.41
2022-09-23T05:49:02.059Z,99108.03
2022-09-23T05:51:31.917Z,99102.88
2022-09-23T05:53:59.946Z,99110.03
2022-09-23T05:56:28.524Z,99115.09
2022-09-23T05:58:58.115Z,99110.50
2022-09-23T06:01:27.995Z,99108.84
2022-09-23T06:03:56.732Z,99110.28
2022-09-23T06:06:32.031Z,99109.69
2022-09-23T06:09:00.375Z,99108.00
2022-09-23T06:11:30.355Z,99110.59
2022-09-23T06:14:02.050Z,99116.28
2022-09-23T06:16:34.846Z,99120.31
2022-09-23T06:19:06.226Z,99118.63
2022-09-23T06:21:39.118Z,99122.38
2022-09-23T06:24:07.340Z,99116.66
2022-09-23T06:26:37.563Z,99115.69
2022-09-23T06:29:10.134Z,99111.16
2022-09-23T06:31:37.929Z,99113.72
2022-09-23T06:34:11.800Z,99119.13
2022-09-23T06:36:44.389Z,99121.38
2022-09-23T06:39:12.067Z,99112.81
2022-09-23T06:41:39.449Z,99121.69
2022-09-23T06:44:07.405Z,99120.53
2022-09-23T06:46:34.523Z,99128.78
2022-09-23T06:49:02.853Z,99122.88
2022-09-23T06:51:29.829Z,99128.88
2022-09-23T06:53:56.850Z,99129.53
2022-09-23T06:56:24.803Z,99133.28
2022-09-23T06:58:52.362Z,99128.50
2022-09-23T07:01:19.938Z,99123.16
2022-09-23T07:03:48.437Z,99122.88
2022-09-23T07:06:15.850Z,99137.00
2022-09-23T07:08:44.969Z,99124.16
2022-09-23T07:11:13.360Z,99131.22
2022-09-23T07:13:41.989Z,99123.66
2022-09-23T07:16:09.898Z,99131.00
2022-09-23T07:18:38.537Z,99133.38
2022-09-23T07:21:13.689Z,99133.28
2022-09-23T07:23:46.032Z,99136.31
2022-09-23T07:26:14.576Z,99135.34
2022-09-23T07:28:42.034Z,99145.19
2022-09-23T07:31:16.748Z,99135.81
2022-09-23T07:33:45.347Z,99140.66
2022-09-23T07:36:17.237Z,99146.31
2022-09-23T07:38:46.021Z,99139.56
2022-09-23T07:41:15.944Z,99143.56
2022-09-23T07:43:44.128Z,99147.44
2022-09-23T07:46:17.511Z,99139.13
2022-09-23T07:48:45.927Z,99143.84
2022-09-23T07:51:25.419Z,99139.28
2022-09-23T07:53:53.730Z,99144.69
2022-09-23T07:56:23.299Z,99141.50
2022-09-23T07:59:00.177Z,99140.66
2022-09-23T08:01:29.573Z,99138.00
2022-09-23T08:04:02.076Z,99145.19
2022-09-23T08:06:29.079Z,99141.94
2022-09-23T08:09:00.913Z,99140.47
2022-09-23T08:11:28.464Z,99140.41
2022-09-23T08:13:56.039Z,99140.13
2022-09-23T08:16:23.417Z,99139.25
2022-09-23T08:18:50.603Z,99142.41
2022-09-23T08:21:21.743Z,99147.34
2022-09-23T08:23:49.131Z,99146.94
2022-09-23T08:26:21.512Z,99152.41
2022-09-23T08:28:50.660Z,99134.50
2022-09-23T08:31:17.730Z,99137.06
2022-09-23T08:33:44.771Z,99146.22
2022-09-23T08:36:12.057Z,99140.00
2022-09-23T08:38:39.022Z,99137.13
2022-09-23T08:41:13.975Z,99133.88
2022-09-23T08:43:46.730Z,99138.84
2022-09-23T08:46:22.228Z,99143.09
2022-09-23T08:48:49.953Z,99142.63
2022-09-23T08:51:25.632Z,99149.91
2022-09-23T08:53:53.152Z,99146.16
2022-09-23T08:56:23.313Z,99145.69
2022-09-23T08:58:56.449Z,99144.41
2022-09-23T09:01:44.484Z,99135.88
2022-09-23T09:04:35.560Z,99144.06
2022-09-23T09:07:35.597Z,99146.28
2022-09-23T09:10:16.664Z,99139.87
2022-09-23T09:12:49.968Z,99137.72
2022-09-23T09:15:24.621Z,99136.91
2022-09-23T09:18:11.324Z,99137.19
2022-09-23T09:20:56.953Z,99137.97
2022-09-23T09:23:40.981Z,99130.31
2022-09-23T09:26:12.240Z,99128.88
2022-09-23T09:28:43.829Z,99137.97
2022-09-23T09:31:29.316Z,99131.34
2022-09-23T09:34:01.020Z,99128.72
2022-09-23T09:36:47.232Z,99118.81
2022-09-23T09:39:15.282Z,99120.78
2022-09-23T09:41:52.193Z,99125.44
2022-09-23T09:44:37.164Z,99124.41
2022-09-23T09:47:38.149Z,99115.81
2022-09-23T09:50:11.555Z,99118.63
2022-09-23T09:52:38.501Z,99114.22
2022-09-23T09:55:14.649Z,99117.25
2022-09-23T09:57:54.834Z,99110.25
2022-09-23T10:00:22.065Z,99103.84
2022-09-23T10:03:22.360Z,99114.41
2022-09-23T10:05:52.330Z,99108.22
2022-09-23T10:08:26.921Z,99107.94
2022-09-23T10:11:05.306Z,99106.44
2022-09-23T10:13:32.915Z,99106.91
2022-09-23T10:16:03.017Z,99106.91
2022-09-23T10:18:32.726Z,99116.13
2022-09-23T10:21:07.311Z,99107.00
2022-09-23T10:23:39.497Z,99105.06
2022-09-23T10:26:08.291Z,99106.75
2022-09-23T10:28:38.333Z,99107.25
2022-09-23T10:31:05.563Z,99109.13
2022-09-23T10:33:32.955Z,99107.81
2022-09-23T10:36:00.068Z,99113.22
2022-09-23T10:38:27.119Z,99108.34
2022-09-23T10:41:14.143Z,99111.66
2022-09-23T10:44:09.858Z,99103.84
2022-09-23T10:46:41.231Z,99095.81
2022-09-23T10:49:31.079Z,99100.06
2022-09-23T10:52:01.685Z,99097.91
2022-09-23T10:54:59.913Z,99102.88
2022-09-23T10:57:45.322Z,99112.59
2022-09-23T11:00:23.168Z,99108.87
2022-09-23T11:03:02.831Z,99101.13
2022-09-23T11:05:36.036Z,99100.81
2022-09-23T11:08:38.657Z,99096.34
2022-09-23T11:11:14.931Z,99095.34
2022-09-23T11:13:55.730Z,99096.03
2022-09-23T11:16:32.522Z,99090.72
2022-09-23T11:19:06.721Z,99089.38
2022-09-23T11:21:50.219Z,99083.44
2022-09-23T11:24:52.055Z,99086.41
2022-09-23T11:28:00.340Z,99076.69
2022-09-23T11:30:38.630Z,99077.09
2022-09-23T11:33:27.081Z,99070.09
2022-09-23T11:36:36.605Z,99077.97
2022-09-23T11:39:13.155Z,99065.06
2022-09-23T11:41:42.024Z,99067.19
2022-09-23T11:44:20.011Z,99066.00
2022-09-23T11:46:51.695Z,99059.59
2022-09-23T11:49:27.591Z,99063.66
2022-09-23T11:52:08.788Z,99054.53
2022-09-23T11:54:56.013Z,99054.03
2022-09-23T11:57:49.636Z,99055.66
2022-09-23T12:00:20.328Z,99054.53
2022-09-23T12:03:18.498Z,99059.72
2022-09-23T12:05:48.366Z,99057.25
2022-09-23T12:08:32.724Z,99050.78
2022-09-23T12:11:18.721Z,99044.75
2022-09-23T12:13:57.999Z,99042.34
2022-09-23T12:16:28.015Z,99041.03
2022-09-23T12:19:28.550Z,99036.41
2022-09-23T12:22:06.959Z,99030.19
2022-09-23T12:24:39.994Z,99028.56
2022-09-23T12:27:10.975Z,99031.09
2022-09-23T12:29:39.951Z,99024.87
2022-09-23T12:32:10.091Z,99031.00
2022-09-23T12:34:47.968Z,99021.12
2022-09-23T12:37:27.681Z,99018.47
2022-09-23T12:39:59.520Z,99014.91
2022-09-23T12:42:30.908Z,99008.84
2022-09-23T12:45:34.686Z,99005.78
2022-09-23T12:48:05.029Z,99006.66
2022-09-23T12:51:18.517Z,99004.22
2022-09-23T12:53:52.689Z,99004.47
2022-09-23T12:56:20.038Z,98993.94
2022-09-23T12:58:47.264Z,98981.13
2022-09-23T13:01:17.231Z,98993.56
2022-09-23T13:04:49.186Z,98979.59
2022-09-23T13:07:25.172Z,98985.53
2022-09-23T13:09:56.040Z,98980.66
2022-09-23T13:12:31.165Z,98975.44
2022-09-23T13:15:03.293Z,98975.09
2022-09-23T13:17:33.297Z,98975.44
2022-09-23T13:20:05.808Z,98968.97
2022-09-23T13:23:00.003Z,98965.88
2022-09-23T13:25:28.965Z,98967.13
2022-09-23T13:27:58.819Z,98974.75
2022-09-23T13:30:26.933Z,98975.81
2022-09-23T13:33:05.671Z,98980.53
2022-09-23T13:35:35.055Z,98975.59
2022-09-23T13:38:11.134Z,98975.25
2022-09-23T13:40:40.339Z,98966.56
2022-09-23T13:43:14.404Z,98970.06
2022-09-23T13:45:43.227Z,98964.56
2022-09-23T13:48:15.380Z,98962.66
2022-09-23T13:50:51.366Z,98960.78
2022-09-23T13:53:23.804Z,98956.22
2022-09-23T13:56:20.943Z,98956.75
2022-09-23T13:58:48.825Z,98961.44
2022-09-23T14:01:33.032Z,98955.34
2022-09-23T14:04:02.178Z,98956.44
2022-09-23T14:06:32.384Z,98957.31
2022-09-23T14:09:01.241Z,98955.22
2022-09-23T14:11:33.639Z,98950.19
2022-09-23T14:14:07.161Z,98949.06
2022-09-23T14:16:39.747Z,98949.63
2022-09-23T14:19:11.413Z,98946.03
2022-09-23T14:21:40.623Z,98947.69
2022-09-23T14:24:15.281Z,98946.22
2022-09-23T14:26:43.783Z,98946.03
2022-09-23T14:29:15.120Z,98939.94
2022-09-23T14:31:56.775Z,98938.47
2022-09-23T14:34:42.617Z,98942.56
2022-09-23T14:37:38.112Z,98931.50
2022-09-23T14:40:10.543Z,98933.78
2022-09-23T14:42:41.150Z,98933.59
2022-09-23T14:45:13.924Z,98929.41
2022-09-23T14:47:45.218Z,98928.44
2022-09-23T14:50:38.927Z,98928.66
2022-09-23T14:53:33.869Z,98926.59
2022-09-23T14:56:06.850Z,98922.94
2022-09-23T14:58:52.247Z,98922.59
2022-09-23T15:01:32.031Z,98919.16
2022-09-23T15:04:10.582Z,98923.25
2022-09-23T15:06:38.360Z,98922.31
2022-09-23T15:09:09.773Z,98926.94
2022-09-23T15:11:36.941Z,98917.25
2022-09-23T15:14:33.158Z,98922.38
2022-09-23T15:16:53.259Z,98926.63
2022-09-23T15:19:21.171Z,98930.91
2022-09-23T15:21:52.681Z,98930.06
2022-09-23T15:24:47.332Z,98924.94
2022-09-23T15:27:26.268Z,98923.91
2022-09-23T15:29:54.164Z,98926.22
2022-09-23T15:32:22.079Z,98923.94
2022-09-23T15:34:52.358Z,98923.28
2022-09-23T15:37:19.935Z,98920.47
2022-09-23T15:39:46.931Z,98916.81
2022-09-23T15:42:13.943Z,98923.88
2022-09-23T15:44:45.175Z,98932.25
2022-09-23T15:47:18.970Z,98909.41
2022-09-23T15:49:47.212Z,98911.59
2022-09-23T15:52:16.363Z,98915.84
2022-09-23T15:54:43.830Z,98907.53
2022-09-23T15:57:11.314Z,98921.03
2022-09-23T15:59:38.406Z,98917.06
2022-09-23T16:02:19.144Z,98913.94
2022-09-23T16:04:51.454Z,98911.37
2022-09-23T16:07:19.726Z,98909.53
2022-09-23T16:09:47.061Z,98917.13
2022-09-23T16:12:15.751Z,98907.97
2022-09-23T16:14:42.816Z,98912.09
2022-09-23T16:17:13.161Z,98911.37
2022-09-23T16:19:40.191Z,98914.69
2022-09-23T16:22:07.933Z,98917.50
2022-09-23T16:24:35.260Z,98921.28
2022-09-23T16:27:04.934Z,98915.66
2022-09-23T16:29:31.928Z,98919.00
2022-09-23T16:32:01.096Z,98915.69
2022-09-23T16:34:28.246Z,98923.44
2022-09-23T16:36:55.375Z,98919.31
2022-09-23T16:39:23.005Z,98927.78
2022-09-23T16:41:50.001Z,98922.78
2022-09-23T16:44:17.040Z,98926.16
2022-09-23T16:46:44.380Z,98930.75
2022-09-23T16:49:12.167Z,98920.53
2022-09-23T16:51:43.086Z,98917.94
2022-09-23T16:54:12.490Z,98918.44
2022-09-23T16:56:44.691Z,98916.09
2022-09-23T16:59:12.989Z,98911.84
2022-09-23T17:01:58.716Z,98914.22
2022-09-23T17:04:27.606Z,98903.72
2022-09-23T17:06:55.985Z,98913.00
2022-09-23T17:09:26.829Z,98908.72
2022-09-23T17:12:15.882Z,98913.25
2022-09-23T17:14:43.777Z,98908.00
2022-09-23T17:17:11.077Z,98909.91
2022-09-23T17:19:41.267Z,98910.75
2022-09-23T17:22:11.091Z,98912.28
2022-09-23T17:24:38.359Z,98916.34
2022-09-23T17:27:05.330Z,98920.44
2022-09-23T17:29:32.324Z,98916.25
2022-09-23T17:31:59.660Z,98918.25
2022-09-23T17:34:28.831Z,98916.25
2022-09-23T17:36:55.794Z,98910.25
2022-09-23T17:39:23.097Z,98915.69
2022-09-23T17:41:50.077Z,98913.84
2022-09-23T17:44:17.638Z,98912.94
2022-09-23T17:46:44.992Z,98919.91
2022-09-23T17:49:12.159Z,98919.56
2022-09-23T17:51:39.523Z,98916.91
2022-09-23T17:54:07.134Z,98922.28
2022-09-23T17:56:34.207Z,98929.09
2022-09-23T17:59:02.004Z,98919.59
2022-09-23T18:01:29.458Z,98928.25
2022-09-23T18:03:58.937Z,98928.19
2022-09-23T18:06:35.467Z,98931.50
2022-09-23T18:09:04.932Z,98930.81
2022-09-23T18:11:40.054Z,98932.00
2022-09-23T18:14:20.876Z,98935.59
2022-09-23T18:16:50.120Z,98938.12
2022-09-23T18:19:19.526Z,98938.25
2022-09-23T18:21:53.560Z,98934.31
2022-09-23T18:24:31.713Z,98930.66
2022-09-23T18:27:00.064Z,98937.06
2022-09-23T18:29:28.126Z,98933.37
2022-09-23T18:31:55.291Z,98928.25
2022-09-23T18:34:23.611Z,98933.72
2022-09-23T18:36:50.952Z,98928.50
2022-09-23T18:39:18.027Z,98932.16
2022-09-23T18:41:45.087Z,98938.22
2022-09-23T18:44:12.393Z,98935.13
2022-09-23T18:46:39.418Z,98938.09
2022-09-23T18:49:25.350Z,98939.63
2022-09-23T18:51:54.608Z,98929.91
2022-09-23T18:54:24.720Z,98939.13
2022-09-23T18:56:54.548Z,98941.03
2022-09-23T18:59:25.142Z,98940.22
2022-09-23T19:01:54.975Z,98943.19
2022-09-23T19:04:23.933Z,98937.56
2022-09-23T19:06:50.971Z,98937.00
2022-09-23T19:09:18.432Z,98948.69
2022-09-23T19:11:46.331Z,98936.13
2022-09-23T19:14:13.626Z,98931.25
2022-09-23T19:16:40.989Z,98936.94
2022-09-23T19:19:08.652Z,98931.94
2022-09-23T19:21:36.368Z,98930.38
2022-09-23T19:24:06.065Z,98933.09
2022-09-23T19:26:37.572Z,98935.94
2022-09-23T19:29:06.147Z,98933.66
2022-09-23T19:31:35.832Z,98934.00
2022-09-23T19:34:10.246Z,98939.34
2022-09-23T19:36:40.128Z,98936.84
2022-09-23T19:39:11.337Z,98936.22
2022-09-23T19:41:38.729Z,98932.09
2022-09-23T19:44:07.504Z,98930.53
2022-09-23T19:46:37.174Z,98934.16
2022-09-23T19:49:05.914Z,98934.50
2022-09-23T19:51:36.979Z,98938.19
2022-09-23T19:54:07.123Z,98934.13
2022-09-23T19:56:34.533Z,98934.34
2022-09-23T19:59:03.118Z,98939.34
2022-09-23T20:01:31.901Z,98936.53
2022-09-23T20:04:00.276Z,98930.53
2022-09-23T20:06:34.271Z,98934.91
2022-09-23T20:09:01.890Z,98929.59
2022-09-23T20:11:29.365Z,98933.56
2022-09-23T20:14:02.198Z,98933.09
2022-09-23T20:16:32.694Z,98929.97
2022-09-23T20:19:00.335Z,98929.13
2022-09-23T20:21:29.504Z,98927.47
2022-09-23T20:23:57.855Z,98926.00
2022-09-23T20:26:43.813Z,98924.25
2022-09-23T20:29:11.354Z,98928.28
2022-09-23T20:31:40.449Z,98930.19
2022-09-23T20:34:08.312Z,98923.53
2022-09-23T20:36:36.051Z,98922.81
2022-09-23T20:39:08.800Z,98919.59
2022-09-23T20:41:37.848Z,98930.22
2022-09-23T20:44:07.757Z,98922.75
2022-09-23T20:46:35.940Z,98926.50
2022-09-23T20:49:03.937Z,98920.47
2022-09-23T20:51:33.320Z,98917.13
2022-09-23T20:54:01.101Z,98920.66
2022-09-23T20:56:29.144Z,98921.72
2022-09-23T20:59:00.539Z,98917.22
2022-09-23T21:01:27.918Z,98918.37
2022-09-23T21:03:56.009Z,98918.69
2022-09-23T21:06:26.259Z,98910.41
2022-09-23T21:08:54.675Z,98920.41
2022-09-23T21:11:22.146Z,98913.00
2022-09-23T21:13:51.347Z,98918.31
2022-09-23T21:16:22.411Z,98918.44
2022-09-23T21:18:50.510Z,98915.81
2022-09-23T21:21:19.611Z,98923.41
2022-09-23T21:23:47.720Z,98922.69
2022-09-23T21:26:20.241Z,98923.84
2022-09-23T21:28:50.195Z,98922.62
2022-09-23T21:31:23.258Z,98914.19
2022-09-23T21:33:54.071Z,98918.66
2022-09-23T21:36:21.667Z,98919.69
2022-09-23T21:38:48.800Z,98919.09
2022-09-23T21:41:16.208Z,98920.84
2022-09-23T21:43:43.541Z,98924.41
2022-09-23T21:46:15.949Z,98918.22
2022-09-23T21:48:43.314Z,98921.31
2022-09-23T21:51:14.096Z,98920.91
2022-09-23T21:53:42.276Z,98926.34
2022-09-23T21:56:15.746Z,98926.53
2022-09-23T21:58:45.856Z,98929.97
2022-09-23T22:01:15.568Z,98926.31
2022-09-23T22:03:44.141Z,98922.03
2022-09-23T22:06:13.851Z,98926.81
2022-09-23T22:08:42.652Z,98925.44
2022-09-23T22:11:33.802Z,98933.44
2022-09-23T22:14:02.813Z,98925.66
2022-09-23T22:16:30.975Z,98925.66
2022-09-23T22:19:00.619Z,98922.84
2022-09-23T22:21:29.270Z,98926.25
2022-09-23T22:24:01.102Z,98927.84
2022-09-23T22:26:31.308Z,98933.69
2022-09-23T22:29:16.894Z,98932.72
2022-09-23T22:32:02.870Z,98928.56
2022-09-23T22:34:49.036Z,98926.91
2022-09-23T22:37:20.093Z,98933.59
2022-09-23T22:39:47.454Z,98925.13
2022-09-23T22:42:14.490Z,98929.31
2022-09-23T22:44:41.717Z,98930.44
2022-09-23T22:47:09.937Z,98923.66
2022-09-23T22:49:36.979Z,98928.97
2022-09-23T22:52:07.924Z,98931.66
2022-09-23T22:54:35.844Z,98934.47
2022-09-23T22:57:09.971Z,98925.03
2022-09-23T22:59:37.682Z,98925.31
2022-09-23T23:02:07.103Z,98924.56
2022-09-23T23:04:34.469Z,98928.31
2022-09-23T23:07:03.126Z,98929.97
2022-09-23T23:09:30.115Z,98927.47
2022-09-23T23:11:57.097Z,98931.12
2022-09-23T23:14:25.761Z,98927.88
2022-09-23T23:16:53.550Z,98927.06
2022-09-23T23:19:20.628Z,98920.19
2022-09-23T23:21:50.021Z,98926.41
2022-09-23T23:24:21.975Z,98926.50
2022-09-23T23:26:50.197Z,98918.72
2022-09-23T23:29:18.992Z,98919.75
2022-09-23T23:31:46.563Z,98918.09
2022-09-23T23:34:16.650Z,98919.09
2022-09-23T23:36:44.031Z,98913.19
2022-09-23T23:39:12.072Z,98907.28
2022-09-23T23:41:39.623Z,98907.28
2022-09-23T23:44:07.809Z,98906.53
2022-09-23T23:46:36.067Z,98910.78
2022-09-23T23:49:04.642Z,98901.22
2022-09-23T23:51:31.640Z,98912.28
2022-09-23T23:53:59.678Z,98904.47
2022-09-23T23:56:27.457Z,98906.13
2022-09-23T23:58:59.319Z,98909.00
